createdAt,value
2022-11-13T00:01:26.471Z,10.65
2022-11-13T00:04:30.383Z,10.27
2022-11-13T00:07:34.455Z,10.25
2022-11-13T00:10:38.824Z,9.18
2022-11-13T00:13:43.227Z,9.38
2022-11-13T00:16:47.462Z,9.10
2022-11-13T00:19:51.758Z,9.13
2022-11-13T00:22:56.055Z,9.52
2022-11-13T00:26:07.883Z,9.05
2022-11-13T00:29:11.832Z,9.40
2022-11-13T00:32:16.111Z,9.07
2022-11-13T00:35:20.451Z,9.05
2022-11-13T00:38:25.157Z,9.88
2022-11-13T00:41:30.090Z,10.00
2022-11-13T00:44:34.297Z,9.30
2022-11-13T00:47:38.626Z,9.48
2022-11-13T00:50:42.973Z,8.80
2022-11-13T00:53:47.599Z,9.63
2022-11-13T00:56:51.927Z,9.98
2022-11-13T00:59:56.288Z,9.55
2022-11-13T01:03:01.233Z,10.00
2022-11-13T01:06:19.606Z,10.63
2022-11-13T01:09:24.286Z,9.73
2022-11-13T01:12:28.733Z,9.15
2022-11-13T01:15:32.964Z,9.10
2022-11-13T01:18:37.431Z,9.95
2022-11-13T01:21:41.578Z,10.10
2022-11-13T01:24:46.091Z,9.30
2022-11-13T01:27:50.425Z,9.40
2022-11-13T01:30:54.792Z,8.68
2022-11-13T01:33:59.542Z,8.63
2022-11-13T01:37:03.847Z,8.43
2022-11-13T01:40:10.410Z,7.88
2022-11-13T01:43:28.620Z,8.02
2022-11-13T01:46:40.575Z,8.50
2022-11-13T01:49:46.199Z,8.38
2022-11-13T01:52:50.626Z,9.20
2022-11-13T01:55:55.123Z,8.60
2022-11-13T01:59:06.856Z,8.23
2022-11-13T02:02:11.513Z,7.95
2022-11-13T02:05:15.634Z,7.55
2022-11-13T02:08:20.190Z,7.55
2022-11-13T02:11:24.287Z,8.40
2022-11-13T02:14:29.701Z,8.48
2022-11-13T02:17:45.686Z,7.40
2022-11-13T02:21:21.981Z,7.95
2022-11-13T02:24:33.358Z,7.72
2022-11-13T02:27:49.106Z,8.15
2022-11-13T02:30:53.243Z,8.32
2022-11-13T02:33:57.655Z,8.40
2022-11-13T02:37:01.880Z,7.93
2022-11-13T02:40:06.917Z,7.75
2022-11-13T02:43:11.284Z,8.27
2022-11-13T02:46:15.571Z,7.93
2022-11-13T02:49:19.884Z,8.57
2022-11-13T02:52:23.922Z,8.55
2022-11-13T02:55:28.030Z,7.53
2022-11-13T02:58:32.486Z,7.30
2022-11-13T03:01:36.724Z,6.72
2022-11-13T03:05:10.164Z,8.00
2022-11-13T03:08:06.486Z,7.03
2022-11-13T03:11:12.372Z,7.28
2022-11-13T03:14:16.572Z,7.43
2022-11-13T03:17:20.826Z,7.43
2022-11-13T03:20:25.300Z,7.13
2022-11-13T03:23:29.792Z,8.38
2022-11-13T03:26:34.448Z,9.30
2022-11-13T03:29:38.439Z,8.90
2022-11-13T03:32:42.740Z,9.60
2022-11-13T03:35:48.194Z,9.32
2022-11-13T03:38:52.468Z,9.00
2022-11-13T03:41:56.703Z,8.75
2022-11-13T03:45:00.907Z,8.50
2022-11-13T03:48:05.849Z,8.93
2022-11-13T03:51:10.042Z,8.38
2022-11-13T03:54:14.640Z,8.35
2022-11-13T03:57:19.441Z,8.23
2022-11-13T04:00:23.818Z,8.85
2022-11-13T04:03:28.044Z,8.57
2022-11-13T04:06:32.588Z,9.23
2022-11-13T04:09:36.579Z,9.73
2022-11-13T04:12:41.233Z,10.02
2022-11-13T04:15:45.274Z,9.40
2022-11-13T04:18:49.362Z,10.27
2022-11-13T04:21:54.412Z,8.75
2022-11-13T04:24:58.860Z,10.20
2022-11-13T04:28:03.255Z,10.10
2022-11-13T04:31:07.744Z,9.43
2022-11-13T04:34:11.960Z,9.88
2022-11-13T04:37:16.705Z,10.45
2022-11-13T04:40:21.107Z,9.88
2022-11-13T04:43:25.502Z,9.98
2022-11-13T04:46:29.872Z,9.50
2022-11-13T04:49:34.079Z,9.25
2022-11-13T04:52:38.460Z,9.02
2022-11-13T04:55:42.895Z,8.73
2022-11-13T04:58:47.369Z,8.98
2022-11-13T05:01:51.631Z,8.95
2022-11-13T05:04:59.263Z,9.02
2022-11-13T05:08:05.999Z,8.38
2022-11-13T05:11:10.312Z,8.73
2022-11-13T05:14:14.928Z,8.38
2022-11-13T05:17:18.994Z,8.93
2022-11-13T05:20:23.406Z,9.20
2022-11-13T05:23:27.695Z,8.98
2022-11-13T05:26:31.939Z,8.88
2022-11-13T05:29:36.038Z,8.80
2022-11-13T05:32:40.080Z,9.85
2022-11-13T05:35:45.616Z,9.27
2022-11-13T05:38:49.973Z,9.55
2022-11-13T05:41:54.274Z,9.68
2022-11-13T05:44:58.649Z,9.80
2022-11-13T05:48:03.139Z,9.52
2022-11-13T05:51:10.134Z,10.02
2022-11-13T05:54:14.516Z,9.73
2022-11-13T05:57:18.800Z,10.85
2022-11-13T06:00:23.070Z,10.30
2022-11-13T06:03:27.260Z,10.98
2022-11-13T06:06:32.676Z,10.15
2022-11-13T06:09:36.699Z,10.70
2022-11-13T06:12:41.067Z,10.85
2022-11-13T06:15:45.288Z,9.80
2022-11-13T06:18:50.410Z,10.30
2022-11-13T06:21:54.685Z,9.60
2022-11-13T06:24:59.047Z,9.05
2022-11-13T06:28:03.515Z,8.80
2022-11-13T06:31:11.818Z,8.15
2022-11-13T06:34:16.200Z,7.60
2022-11-13T06:37:20.256Z,7.47
2022-11-13T06:40:24.578Z,7.93
2022-11-13T06:43:29.384Z,7.72
2022-11-13T06:46:34.264Z,7.57
2022-11-13T06:49:38.492Z,7.65
2022-11-13T06:52:42.560Z,7.25
2022-11-13T06:55:49.090Z,7.53
2022-11-13T06:58:56.740Z,8.07
2022-11-13T07:02:00.868Z,8.25
2022-11-13T07:05:05.430Z,8.07
2022-11-13T07:08:09.855Z,8.18
2022-11-13T07:11:21.912Z,8.07
2022-11-13T07:14:26.436Z,9.20
2022-11-13T07:17:30.700Z,8.02
2022-11-13T07:20:35.194Z,7.75
2022-11-13T07:23:43.161Z,7.93
2022-11-13T07:26:47.444Z,7.88
2022-11-13T07:29:51.885Z,8.13
2022-11-13T07:32:56.217Z,7.78
2022-11-13T07:36:00.787Z,7.55
2022-11-13T07:39:05.055Z,7.43
2022-11-13T07:42:09.343Z,7.57
2022-11-13T07:45:13.575Z,7.60
2022-11-13T07:48:18.047Z,7.65
2022-11-13T07:51:22.477Z,7.40
2022-11-13T07:54:26.767Z,8.18
2022-11-13T07:57:31.048Z,8.23
2022-11-13T08:00:35.931Z,8.02
2022-11-13T08:03:40.316Z,7.80
2022-11-13T08:06:44.635Z,8.07
2022-11-13T08:09:48.638Z,8.40
2022-11-13T08:13:02.595Z,9.32
2022-11-13T08:16:07.582Z,9.77
2022-11-13T08:19:11.721Z,9.60
2022-11-13T08:22:16.091Z,9.50
2022-11-13T08:25:20.552Z,8.73
2022-11-13T08:28:24.991Z,9.30
2022-11-13T08:31:29.304Z,8.65
2022-11-13T08:34:34.168Z,8.32
2022-11-13T08:37:38.735Z,8.32
2022-11-13T08:40:43.011Z,7.72
2022-11-13T08:43:47.326Z,8.98
2022-11-13T08:46:51.581Z,8.70
2022-11-13T08:49:55.825Z,9.70
2022-11-13T08:53:00.942Z,9.18
2022-11-13T08:56:05.662Z,10.10
2022-11-13T08:59:10.948Z,9.13
2022-11-13T09:02:15.713Z,9.35
2022-11-13T09:05:20.246Z,9.95
2022-11-13T09:08:24.260Z,9.13
2022-11-13T09:11:28.708Z,10.00
2022-11-13T09:14:33.299Z,9.35
2022-11-13T09:17:37.704Z,8.68
2022-11-13T09:20:42.108Z,8.73
2022-11-13T09:23:46.222Z,8.52
2022-11-13T09:26:50.503Z,9.57
2022-11-13T09:29:55.800Z,8.90
2022-11-13T09:33:00.935Z,8.73
2022-11-13T09:36:15.655Z,7.88
2022-11-13T09:39:19.667Z,8.48
2022-11-13T09:42:28.382Z,9.13
2022-11-13T09:45:33.264Z,8.10
2022-11-13T09:48:41.583Z,7.93
2022-11-13T09:51:51.883Z,7.40
2022-11-13T09:54:56.129Z,7.60
2022-11-13T09:58:12.536Z,6.88
2022-11-13T10:01:26.331Z,6.75
2022-11-13T10:04:54.114Z,7.00
2022-11-13T10:08:04.492Z,7.00
2022-11-13T10:11:35.336Z,6.82
2022-11-13T10:14:45.877Z,6.35
2022-11-13T10:17:55.314Z,6.25
2022-11-13T10:21:15.526Z,5.88
2022-11-13T10:24:28.301Z,5.70
2022-11-13T10:27:32.748Z,5.80
2022-11-13T10:30:36.767Z,5.10
2022-11-13T10:33:41.344Z,4.95
2022-11-13T10:37:10.536Z,4.35
2022-11-13T10:40:33.195Z,5.18
2022-11-13T10:44:02.816Z,5.07
2022-11-13T10:47:36.002Z,5.72
2022-11-13T10:53:44.788Z,5.03
2022-11-13T10:57:05.708Z,5.32
2022-11-13T11:00:32.016Z,5.00
2022-11-13T11:03:36.056Z,4.97
2022-11-13T11:07:17.808Z,5.40
2022-11-13T11:10:32.846Z,5.43
2022-11-13T11:13:37.141Z,4.78
2022-11-13T11:16:42.262Z,4.95
2022-11-13T11:20:00.716Z,5.65
2022-11-13T11:23:49.475Z,5.53
2022-11-13T11:27:06.842Z,6.00
2022-11-13T11:30:28.896Z,6.15
2022-11-13T11:33:37.184Z,5.38
2022-11-13T11:36:55.568Z,5.53
2022-11-13T11:40:07.943Z,5.97
2022-11-13T11:43:27.662Z,5.68
2022-11-13T11:46:31.806Z,5.20
2022-11-13T11:49:36.100Z,5.10
2022-11-13T11:53:04.295Z,4.88
2022-11-13T11:56:16.323Z,4.95
2022-11-13T11:59:57.426Z,5.38
2022-11-13T12:03:22.469Z,4.85
2022-11-13T12:07:09.006Z,5.00
2022-11-13T12:10:28.568Z,5.20
2022-11-13T12:13:45.382Z,6.38
2022-11-13T12:17:21.839Z,6.38
2022-11-13T12:20:43.565Z,6.43
2022-11-13T12:24:05.789Z,5.60
2022-11-13T12:27:27.244Z,5.87
2022-11-13T12:31:00.018Z,5.65
2022-11-13T12:34:31.333Z,5.25
2022-11-13T12:37:51.137Z,5.15
2022-11-13T12:41:23.366Z,4.95
2022-11-13T12:44:29.639Z,4.80
2022-11-13T12:47:35.684Z,4.40
2022-11-13T12:50:40.528Z,4.60
2022-11-13T12:53:48.665Z,5.60
2022-11-13T12:56:53.307Z,4.97
2022-11-13T13:00:00.568Z,5.07
2022-11-13T13:03:53.964Z,4.95
2022-11-13T13:07:22.667Z,5.60
2022-11-13T13:10:29.193Z,5.10
2022-11-13T13:13:58.224Z,5.60
2022-11-13T13:17:14.488Z,5.60
2022-11-13T13:20:18.848Z,6.18
2022-11-13T13:23:32.733Z,5.72
2022-11-13T13:26:45.237Z,5.40
2022-11-13T13:29:49.297Z,6.20
2022-11-13T13:33:05.294Z,5.90
2022-11-13T13:36:40.319Z,5.70
2022-11-13T13:40:16.483Z,5.15
2022-11-13T13:43:36.731Z,5.55
2022-11-13T13:46:41.752Z,5.22
2022-11-13T13:49:46.191Z,4.85
2022-11-13T13:52:55.826Z,4.90
2022-11-13T13:56:03.547Z,4.80
2022-11-13T13:59:18.599Z,4.53
2022-11-13T14:02:24.137Z,4.18
2022-11-13T14:05:31.626Z,4.97
2022-11-13T14:08:35.973Z,4.53
2022-11-13T14:11:40.513Z,4.80
2022-11-13T14:14:45.028Z,4.47
2022-11-13T14:17:50.539Z,4.40
2022-11-13T14:20:57.231Z,4.38
2022-11-13T14:24:03.461Z,5.47
2022-11-13T14:27:09.461Z,6.20
2022-11-13T14:30:23.001Z,7.68
2022-11-13T14:33:32.717Z,6.72
2022-11-13T14:36:38.161Z,7.18
2022-11-13T14:39:46.444Z,6.20
2022-11-13T14:42:57.598Z,6.88
2022-11-13T14:46:04.585Z,6.13
2022-11-13T14:49:15.531Z,6.82
2022-11-13T14:52:21.971Z,5.35
2022-11-13T14:55:29.545Z,6.10
2022-11-13T14:58:36.345Z,5.88
2022-11-13T15:01:40.450Z,6.13
2022-11-13T15:04:44.705Z,6.60
2022-11-13T15:07:49.716Z,6.25
2022-11-13T15:10:55.715Z,5.97
2022-11-13T15:14:04.158Z,5.38
2022-11-13T15:17:15.085Z,6.22
2022-11-13T15:20:24.383Z,5.60
2022-11-13T15:23:29.256Z,5.32
2022-11-13T15:26:33.906Z,5.90
2022-11-13T15:29:38.097Z,5.40
2022-11-13T15:32:42.645Z,5.57
2022-11-13T15:35:47.226Z,5.70
2022-11-13T15:38:51.326Z,5.38
2022-11-13T15:41:55.660Z,5.80
2022-11-13T15:44:59.802Z,5.57
2022-11-13T15:48:04.226Z,5.18
2022-11-13T15:51:22.508Z,5.47
2022-11-13T15:54:31.509Z,5.75
2022-11-13T15:57:37.678Z,6.32
2022-11-13T16:00:43.012Z,5.60
2022-11-13T16:03:47.519Z,5.68
2022-11-13T16:06:51.576Z,5.65
2022-11-13T16:09:55.819Z,6.03
2022-11-13T16:13:00.272Z,5.93
2022-11-13T16:16:04.956Z,5.80
2022-11-13T16:19:13.223Z,6.22
2022-11-13T16:22:25.987Z,7.30
2022-11-13T16:25:30.100Z,6.53
2022-11-13T16:28:52.735Z,6.45
2022-11-13T16:31:58.431Z,6.35
2022-11-13T16:35:02.839Z,6.35
2022-11-13T16:38:12.944Z,7.20
2022-11-13T16:41:17.315Z,6.97
2022-11-13T16:44:21.219Z,7.45
2022-11-13T16:47:26.263Z,8.02
2022-11-13T16:50:32.913Z,8.65
2022-11-13T16:53:37.392Z,8.50
2022-11-13T16:56:41.996Z,7.63
2022-11-13T16:59:46.222Z,6.82
2022-11-13T17:02:52.492Z,7.60
2022-11-13T17:05:56.921Z,7.40
2022-11-13T17:09:03.282Z,8.57
2022-11-13T17:12:07.899Z,9.23
2022-11-13T17:15:12.044Z,9.20
2022-11-13T17:18:16.440Z,9.07
2022-11-13T17:21:22.357Z,8.95
2022-11-13T17:24:26.422Z,8.63
2022-11-13T17:27:30.844Z,8.30
2022-11-13T17:30:35.289Z,8.00
2022-11-13T17:33:40.218Z,8.50
2022-11-13T17:36:44.511Z,9.52
2022-11-13T17:39:48.617Z,8.77
2022-11-13T17:42:53.201Z,9.93
2022-11-13T17:45:57.559Z,9.60
2022-11-13T17:49:02.123Z,9.65
2022-11-13T17:52:06.277Z,9.93
2022-11-13T17:55:12.989Z,9.77
2022-11-13T17:58:17.364Z,9.70
2022-11-13T18:01:22.647Z,10.02
2022-11-13T18:04:27.150Z,9.52
2022-11-13T18:07:31.769Z,10.77
2022-11-13T18:10:38.242Z,9.90
2022-11-13T18:13:43.509Z,9.77
2022-11-13T18:16:47.204Z,10.55
2022-11-13T18:19:54.811Z,10.65
2022-11-13T18:23:02.729Z,10.48
2022-11-13T18:26:09.299Z,10.43
2022-11-13T18:29:13.522Z,9.45
2022-11-13T18:32:17.676Z,9.15
2022-11-13T18:35:21.942Z,8.68
2022-11-13T18:38:26.573Z,10.13
2022-11-13T18:41:32.589Z,9.95
2022-11-13T18:44:36.812Z,11.20
2022-11-13T18:47:41.063Z,9.70
2022-11-13T18:50:55.749Z,10.00
2022-11-13T18:54:00.996Z,9.82
2022-11-13T18:57:06.746Z,9.65
2022-11-13T19:00:11.510Z,9.50
2022-11-13T19:03:16.018Z,8.63
2022-11-13T19:06:22.564Z,8.82
2022-11-13T19:09:26.816Z,9.45
2022-11-13T19:12:31.494Z,8.38
2022-11-13T19:15:37.848Z,8.77
2022-11-13T19:18:44.002Z,8.50
2022-11-13T19:21:49.077Z,8.50
2022-11-13T19:24:53.520Z,8.63
2022-11-13T19:27:57.480Z,8.75
2022-11-13T19:31:09.007Z,8.10
2022-11-13T19:34:13.380Z,8.50
2022-11-13T19:37:19.271Z,8.48
2022-11-13T19:40:23.703Z,8.75
2022-11-13T19:43:27.909Z,9.70
2022-11-13T19:46:33.929Z,10.88
2022-11-13T19:49:39.808Z,10.45
2022-11-13T19:52:43.863Z,11.07
2022-11-13T19:55:55.380Z,10.63
2022-11-13T19:58:59.624Z,9.48
2022-11-13T20:02:04.157Z,9.30
2022-11-13T20:05:08.643Z,9.13
2022-11-13T20:08:13.697Z,8.95
2022-11-13T20:11:18.295Z,8.88
2022-11-13T20:14:22.617Z,8.80
2022-11-13T20:17:26.875Z,8.10
2022-11-13T20:20:32.107Z,7.38
2022-11-13T20:23:36.539Z,8.00
2022-11-13T20:26:40.567Z,8.35
2022-11-13T20:29:45.059Z,8.60
2022-11-13T20:32:49.480Z,8.77
2022-11-13T20:35:54.836Z,9.50
2022-11-13T20:38:59.227Z,8.82
2022-11-13T20:42:03.162Z,9.48
2022-11-13T20:45:07.909Z,9.75
2022-11-13T20:48:12.020Z,8.88
2022-11-13T20:51:20.878Z,9.20
2022-11-13T20:54:25.288Z,8.80
2022-11-13T20:57:29.341Z,8.82
2022-11-13T21:00:33.547Z,9.18
2022-11-13T21:03:41.301Z,8.82
2022-11-13T21:06:47.166Z,8.90
2022-11-13T21:09:51.750Z,8.55
2022-11-13T21:12:56.098Z,9.35
2022-11-13T21:16:05.962Z,9.38
2022-11-13T21:19:10.088Z,8.80
2022-11-13T21:22:14.486Z,8.90
2022-11-13T21:25:19.674Z,8.43
2022-11-13T21:28:27.143Z,8.60
2022-11-13T21:31:35.143Z,8.65
2022-11-13T21:34:39.332Z,8.90
2022-11-13T21:37:44.020Z,9.60
2022-11-13T21:41:08.164Z,9.52
2022-11-13T21:44:12.309Z,9.93
2022-11-13T21:47:16.766Z,11.55
2022-11-13T21:50:20.949Z,10.07
2022-11-13T21:53:25.388Z,10.75
2022-11-13T21:56:30.521Z,10.65
2022-11-13T21:59:34.954Z,10.70
2022-11-13T22:02:39.464Z,10.15
2022-11-13T22:05:43.663Z,9.13
2022-11-13T22:08:55.923Z,10.43
2022-11-13T22:12:00.379Z,9.75
2022-11-13T22:15:04.983Z,10.13
2022-11-13T22:18:09.203Z,11.27
2022-11-13T22:21:15.406Z,10.25
2022-11-13T22:24:19.789Z,9.40
2022-11-13T22:27:24.111Z,10.20
2022-11-13T22:30:28.264Z,10.25
2022-11-13T22:33:34.843Z,9.43
2022-11-13T22:36:39.196Z,10.05
2022-11-13T22:39:43.445Z,10.30
2022-11-13T22:42:47.951Z,10.65
2022-11-13T22:45:52.736Z,9.98
2022-11-13T22:48:58.613Z,11.23
2022-11-13T22:52:02.787Z,11.00
2022-11-13T22:55:07.449Z,10.18
2022-11-13T22:58:11.635Z,10.85
2022-11-13T23:01:17.195Z,9.95
2022-11-13T23:04:21.268Z,11.07
2022-11-13T23:07:25.647Z,10.60
2022-11-13T23:10:29.944Z,9.75
2022-11-13T23:13:34.632Z,9.70
2022-11-13T23:16:38.963Z,10.07
2022-11-13T23:19:43.379Z,10.05
2022-11-13T23:22:47.666Z,10.82
2022-11-13T23:25:52.199Z,9.80
2022-11-13T23:28:56.661Z,9.27
2022-11-13T23:32:01.019Z,9.93
2022-11-13T23:35:05.781Z,9.45
2022-11-13T23:38:09.846Z,10.07
2022-11-13T23:41:14.163Z,10.82
2022-11-13T23:44:19.085Z,10.63
2022-11-13T23:47:23.427Z,9.15
2022-11-13T23:50:27.908Z,10.00
2022-11-13T23:53:32.278Z,10.90
2022-11-13T23:56:36.563Z,9.63
2022-11-13T23:59:40.740Z,10.90
